sensor_id;sensor_type;location;lat;lon;timestamp;pressure;altitude;pressure_sealevel;temperature;humidity
15263;BME280;7733;51.554;13.590;2022-11-04T00:01:51;99369.69;;;12.40;90.19
15263;BME280;7733;51.554;13.590;2022-11-04T00:04:20;99363.66;;;12.15;90.93
15263;BME280;7733;51.554;13.590;2022-11-04T00:06:46;99353.88;;;12.18;90.17
15263;BME280;7733;51.554;13.590;2022-11-04T00:09:18;99359.38;;;12.12;91.32
15263;BME280;7733;51.554;13.590;2022-11-04T00:11:44;99355.94;;;12.10;90.14
15263;BME280;7733;51.554;13.590;2022-11-04T00:14:29;99350.84;;;12.06;89.61
15263;BME280;7733;51.554;13.590;2022-11-04T00:16:56;99354.97;;;12.13;89.47
15263;BME280;7733;51.554;13.590;2022-11-04T00:19:40;99348.38;;;11.76;94.24
15263;BME280;7733;51.554;13.590;2022-11-04T00:22:24;99349.69;;;11.90;91.30
15263;BME280;7733;51.554;13.590;2022-11-04T00:25:09;99351.75;;;11.81;90.88
15263;BME280;7733;51.554;13.590;2022-11-04T00:28:09;99350.56;;;11.90;90.18
15263;BME280;7733;51.554;13.590;2022-11-04T00:30:56;99347.50;;;11.76;90.60
15263;BME280;7733;51.554;13.590;2022-11-04T00:33:23;99348.22;;;11.82;89.84
15263;BME280;7733;51.554;13.590;2022-11-04T00:35:56;99351.84;;;11.78;91.14
15263;BME280;7733;51.554;13.590;2022-11-04T00:38:24;99356.25;;;11.76;90.16
15263;BME280;7733;51.554;13.590;2022-11-04T00:40:50;99346.78;;;11.72;91.00
15263;BME280;7733;51.554;13.590;2022-11-04T00:43:15;99344.94;;;11.74;90.86
15263;BME280;7733;51.554;13.590;2022-11-04T00:45:41;99347.56;;;11.74;89.83
15263;BME280;7733;51.554;13.590;2022-11-04T00:48:07;99354.06;;;11.64;90.93
15263;BME280;7733;51.554;13.590;2022-11-04T00:50:33;99337.53;;;11.61;91.09
15263;BME280;7733;51.554;13.590;2022-11-04T00:53:00;99345.91;;;11.47;91.47
15263;BME280;7733;51.554;13.590;2022-11-04T00:55:27;99347.75;;;11.45;91.83
15263;BME280;7733;51.554;13.590;2022-11-04T00:57:53;99345.22;;;11.42;91.06
15263;BME280;7733;51.554;13.590;2022-11-04T01:00:19;99342.69;;;11.39;90.99
15263;BME280;7733;51.554;13.590;2022-11-04T01:02:46;99340.72;;;11.45;90.24
15263;BME280;7733;51.554;13.590;2022-11-04T01:05:11;99348.38;;;11.51;89.62
15263;BME280;7733;51.554;13.590;2022-11-04T01:07:37;99339.88;;;11.45;90.08
15263;BME280;7733;51.554;13.590;2022-11-04T01:10:05;99345.91;;;11.47;89.79
15263;BME280;7733;51.554;13.590;2022-11-04T01:12:31;99338.94;;;11.46;89.80
15263;BME280;7733;51.554;13.590;2022-11-04T01:14:56;99328.44;;;11.46;89.80
15263;BME280;7733;51.554;13.590;2022-11-04T01:17:22;99341.25;;;11.30;90.69
15263;BME280;7733;51.554;13.590;2022-11-04T01:19:47;99341.50;;;11.22;91.26
15263;BME280;7733;51.554;13.590;2022-11-04T01:22:13;99331.88;;;11.23;91.75
15263;BME280;7733;51.554;13.590;2022-11-04T01:24:39;99314.53;;;11.17;92.65
15263;BME280;7733;51.554;13.590;2022-11-04T01:27:04;99321.19;;;11.27;91.92
15263;BME280;7733;51.554;13.590;2022-11-04T01:29:30;99325.94;;;11.16;93.20
15263;BME280;7733;51.554;13.590;2022-11-04T01:31:55;99320.81;;;11.13;92.50
15263;BME280;7733;51.554;13.590;2022-11-04T01:34:21;99318.34;;;11.09;94.07
15263;BME280;7733;51.554;13.590;2022-11-04T01:36:47;99317.53;;;11.07;92.94
15263;BME280;7733;51.554;13.590;2022-11-04T01:39:12;99319.41;;;11.03;92.96
15263;BME280;7733;51.554;13.590;2022-11-04T01:41:39;99328.41;;;10.68;94.55
15263;BME280;7733;51.554;13.590;2022-11-04T01:47:17;99345.25;;;10.00;98.13
15263;BME280;7733;51.554;13.590;2022-11-04T01:49:49;99332.34;;;10.53;96.92
15263;BME280;7733;51.554;13.590;2022-11-04T01:53:08;99321.44;;;10.67;95.74
15263;BME280;7733;51.554;13.590;2022-11-04T01:55:32;99335.13;;;10.77;94.85
15263;BME280;7733;51.554;13.590;2022-11-04T01:58:05;99326.88;;;10.89;92.97
15263;BME280;7733;51.554;13.590;2022-11-04T02:00:32;99330.16;;;10.68;95.06
15263;BME280;7733;51.554;13.590;2022-11-04T02:03:09;99329.06;;;10.75;94.19
15263;BME280;7733;51.554;13.590;2022-11-04T02:05:38;99323.28;;;10.91;93.23
15263;BME280;7733;51.554;13.590;2022-11-04T02:08:05;99336.22;;;10.70;94.27
15263;BME280;7733;51.554;13.590;2022-11-04T02:10:32;99332.38;;;10.80;93.85
15263;BME280;7733;51.554;13.590;2022-11-04T02:13:02;99320.00;;;10.57;94.68
15263;BME280;7733;51.554;13.590;2022-11-04T02:15:47;99316.25;;;10.65;93.97
15263;BME280;7733;51.554;13.590;2022-11-04T02:18:29;99301.66;;;10.29;97.19
15263;BME280;7733;51.554;13.590;2022-11-04T02:21:34;99286.50;;;10.39;100.00
15263;BME280;7733;51.554;13.590;2022-11-04T02:27:29;99304.84;;;10.39;100.00
15263;BME280;7733;51.554;13.590;2022-11-04T02:30:12;99308.88;;;10.19;100.00
15263;BME280;7733;51.554;13.590;2022-11-04T02:33:08;99297.16;;;10.60;100.00
15263;BME280;7733;51.554;13.590;2022-11-04T02:35:54;99299.19;;;10.79;98.25
15263;BME280;7733;51.554;13.590;2022-11-04T02:38:37;99307.25;;;10.46;99.39
15263;BME280;7733;51.554;13.590;2022-11-04T02:41:38;99301.81;;;10.79;97.73
15263;BME280;7733;51.554;13.590;2022-11-04T02:44:29;99304.91;;;10.91;97.38
15263;BME280;7733;51.554;13.590;2022-11-04T02:47:12;99294.31;;;10.94;98.92
15263;BME280;7733;51.554;13.590;2022-11-04T02:49:54;99292.44;;;10.98;100.00
15263;BME280;7733;51.554;13.590;2022-11-04T02:52:35;99293.88;;;11.08;100.00
15263;BME280;7733;51.554;13.590;2022-11-04T02:55:20;99291.59;;;11.24;98.00
15263;BME280;7733;51.554;13.590;2022-11-04T02:57:50;99306.38;;;11.00;100.00
15263;BME280;7733;51.554;13.590;2022-11-04T03:00:18;99322.25;;;10.95;100.00
15263;BME280;7733;51.554;13.590;2022-11-04T03:03:00;99315.84;;;11.31;100.00
15263;BME280;7733;51.554;13.590;2022-11-04T03:05:34;99318.19;;;11.38;100.00
15263;BME280;7733;51.554;13.590;2022-11-04T03:08:18;99319.09;;;11.37;100.00
15263;BME280;7733;51.554;13.590;2022-11-04T03:10:53;99327.72;;;11.41;100.00
15263;BME280;7733;51.554;13.590;2022-11-04T03:13:40;99320.75;;;11.15;100.00
15263;BME280;7733;51.554;13.590;2022-11-04T03:16:16;99316.91;;;11.25;100.00
15263;BME280;7733;51.554;13.590;2022-11-04T03:19:15;99328.38;;;10.96;100.00
15263;BME280;7733;51.554;13.590;2022-11-04T03:21:59;99318.34;;;11.09;100.00
15263;BME280;7733;51.554;13.590;2022-11-04T03:24:27;99327.97;;;11.08;100.00
15263;BME280;7733;51.554;13.590;2022-11-04T03:27:23;99314.28;;;11.25;100.00
15263;BME280;7733;51.554;13.590;2022-11-04T03:30:00;99323.09;;;11.49;100.00
15263;BME280;7733;51.554;13.590;2022-11-04T03:32:58;99322.69;;;11.59;100.00
15263;BME280;7733;51.554;13.590;2022-11-04T03:35:29;99326.41;;;11.54;100.00
15263;BME280;7733;51.554;13.590;2022-11-04T03:37:56;99321.66;;;11.90;100.00
15263;BME280;7733;51.554;13.590;2022-11-04T03:40:23;99322.22;;;11.73;100.00
15263;BME280;7733;51.554;13.590;2022-11-04T03:43:07;99321.66;;;11.65;100.00
15263;BME280;7733;51.554;13.590;2022-11-04T03:45:34;99316.44;;;11.88;100.00
15263;BME280;7733;51.554;13.590;2022-11-04T03:48:00;99314.22;;;11.76;100.00
15263;BME280;7733;51.554;13.590;2022-11-04T03:50:29;99318.66;;;11.99;100.00
15263;BME280;7733;51.554;13.590;2022-11-04T03:52:57;99306.00;;;11.87;100.00
15263;BME280;7733;51.554;13.590;2022-11-04T03:59:09;99311.75;;;11.97;100.00
15263;BME280;7733;51.554;13.590;2022-11-04T04:01:52;99299.19;;;12.05;100.00
15263;BME280;7733;51.554;13.590;2022-11-04T04:04:35;99314.56;;;11.92;100.00
15263;BME280;7733;51.554;13.590;2022-11-04T04:10:36;99303.84;;;12.20;100.00
15263;BME280;7733;51.554;13.590;2022-11-04T04:13:19;99299.53;;;11.96;100.00
15263;BME280;7733;51.554;13.590;2022-11-04T04:16:16;99310.16;;;11.93;100.00
15263;BME280;7733;51.554;13.590;2022-11-04T04:19:10;99311.63;;;12.00;100.00
15263;BME280;7733;51.554;13.590;2022-11-04T04:21:46;99293.25;;;12.00;100.00
15263;BME280;7733;51.554;13.590;2022-11-04T04:24:17;99312.56;;;11.99;100.00
15263;BME280;7733;51.554;13.590;2022-11-04T04:27:03;99320.66;;;12.16;100.00
15263;BME280;7733;51.554;13.590;2022-11-04T04:29:50;99325.47;;;12.28;100.00
15263;BME280;7733;51.554;13.590;2022-11-04T04:32:19;99325.53;;;12.27;100.00
15263;BME280;7733;51.554;13.590;2022-11-04T04:34:46;99334.72;;;12.38;100.00
15263;BME280;7733;51.554;13.590;2022-11-04T04:37:22;99325.91;;;12.39;100.00
15263;BME280;7733;51.554;13.590;2022-11-04T04:39:56;99324.50;;;12.31;100.00
15263;BME280;7733;51.554;13.590;2022-11-04T04:42:41;99334.06;;;12.55;100.00
15263;BME280;7733;51.554;13.590;2022-11-04T04:45:32;99334.16;;;12.30;100.00
15263;BME280;7733;51.554;13.590;2022-11-04T04:47:59;99347.00;;;12.38;100.00
15263;BME280;7733;51.554;13.590;2022-11-04T04:50:38;99340.31;;;12.53;100.00
15263;BME280;7733;51.554;13.590;2022-11-04T04:53:05;99355.88;;;12.35;100.00
15263;BME280;7733;51.554;13.590;2022-11-04T04:55:31;99355.88;;;12.35;100.00
15263;BME280;7733;51.554;13.590;2022-11-04T04:57:57;99357.38;;;12.42;100.00
15263;BME280;7733;51.554;13.590;2022-11-04T05:00:24;99353.69;;;12.46;100.00
15263;BME280;7733;51.554;13.590;2022-11-04T05:02:50;99362.34;;;12.27;100.00
15263;BME280;7733;51.554;13.590;2022-11-04T05:05:17;99371.28;;;12.21;100.00
15263;BME280;7733;51.554;13.590;2022-11-04T05:07:43;99380.81;;;12.48;100.00
15263;BME280;7733;51.554;13.590;2022-11-04T05:10:13;99374.16;;;12.38;100.00
15263;BME280;7733;51.554;13.590;2022-11-04T05:12:39;99383.66;;;12.42;100.00
15263;BME280;7733;51.554;13.590;2022-11-04T05:15:25;99371.53;;;12.38;100.00
15263;BME280;7733;51.554;13.590;2022-11-04T05:17:59;99382.16;;;12.59;100.00
15263;BME280;7733;51.554;13.590;2022-11-04T05:20:26;99390.19;;;12.32;100.00
15263;BME280;7733;51.554;13.590;2022-11-04T05:22:53;99392.13;;;12.51;100.00
15263;BME280;7733;51.554;13.590;2022-11-04T05:25:19;99386.44;;;12.61;100.00
15263;BME280;7733;51.554;13.590;2022-11-04T05:27:44;99399.66;;;12.36;100.00
15263;BME280;7733;51.554;13.590;2022-11-04T05:30:10;99401.38;;;12.14;100.00
15263;BME280;7733;51.554;13.590;2022-11-04T05:32:36;99390.41;;;12.26;100.00
15263;BME280;7733;51.554;13.590;2022-11-04T05:35:02;99386.50;;;12.36;100.00
15263;BME280;7733;51.554;13.590;2022-11-04T05:37:28;99389.25;;;12.33;100.00
15263;BME280;7733;51.554;13.590;2022-11-04T05:39:53;99381.59;;;12.27;100.00
15263;BME280;7733;51.554;13.590;2022-11-04T05:42:19;99376.00;;;12.36;100.00
15263;BME280;7733;51.554;13.590;2022-11-04T05:44:45;99389.00;;;12.39;100.00
15263;BME280;7733;51.554;13.590;2022-11-04T05:47:10;99395.00;;;12.44;100.00
15263;BME280;7733;51.554;13.590;2022-11-04T05:49:36;99389.38;;;12.54;100.00
15263;BME280;7733;51.554;13.590;2022-11-04T05:52:02;99399.56;;;12.63;100.00
15263;BME280;7733;51.554;13.590;2022-11-04T05:54:27;99390.28;;;12.53;100.00
15263;BME280;7733;51.554;13.590;2022-11-04T05:56:53;99395.19;;;12.38;100.00
15263;BME280;7733;51.554;13.590;2022-11-04T05:59:18;99395.59;;;12.51;100.00
15263;BME280;7733;51.554;13.590;2022-11-04T06:01:44;99393.47;;;12.61;100.00
15263;BME280;7733;51.554;13.590;2022-11-04T06:04:17;99394.38;;;12.60;100.00
15263;BME280;7733;51.554;13.590;2022-11-04T06:06:44;99392.31;;;12.46;100.00
15263;BME280;7733;51.554;13.590;2022-11-04T06:09:09;99405.16;;;12.54;100.00
15263;BME280;7733;51.554;13.590;2022-11-04T06:11:37;99410.97;;;12.38;100.00
15263;BME280;7733;51.554;13.590;2022-11-04T06:14:04;99413.16;;;12.27;100.00
15263;BME280;7733;51.554;13.590;2022-11-04T06:16:30;99414.81;;;12.53;100.00
15263;BME280;7733;51.554;13.590;2022-11-04T06:18:55;99416.16;;;12.41;100.00
15263;BME280;7733;51.554;13.590;2022-11-04T06:21:30;99417.81;;;12.44;100.00
15263;BME280;7733;51.554;13.590;2022-11-04T06:23:58;99414.63;;;12.34;100.00
15263;BME280;7733;51.554;13.590;2022-11-04T06:26:26;99419.56;;;12.43;100.00
15263;BME280;7733;51.554;13.590;2022-11-04T06:28:52;99423.84;;;12.46;100.00
15263;BME280;7733;51.554;13.590;2022-11-04T06:31:19;99412.59;;;12.42;100.00
15263;BME280;7733;51.554;13.590;2022-11-04T06:33:45;99426.00;;;12.58;100.00
15263;BME280;7733;51.554;13.590;2022-11-04T06:36:14;99413.78;;;12.34;100.00
15263;BME280;7733;51.554;13.590;2022-11-04T06:38:40;99407.53;;;12.60;100.00
15263;BME280;7733;51.554;13.590;2022-11-04T06:41:11;99411.25;;;12.54;100.00
15263;BME280;7733;51.554;13.590;2022-11-04T06:43:38;99401.84;;;12.48;100.00
15263;BME280;7733;51.554;13.590;2022-11-04T06:46:04;99396.22;;;12.58;100.00
15263;BME280;7733;51.554;13.590;2022-11-04T06:48:30;99384.00;;;13.00;100.00
15263;BME280;7733;51.554;13.590;2022-11-04T06:51:00;99395.38;;;12.79;100.00
15263;BME280;7733;51.554;13.590;2022-11-04T06:53:26;99379.84;;;12.95;100.00
15263;BME280;7733;51.554;13.590;2022-11-04T06:56:01;99393.47;;;12.84;100.00
15263;BME280;7733;51.554;13.590;2022-11-04T06:58:27;99398.44;;;12.68;100.00
15263;BME280;7733;51.554;13.590;2022-11-04T07:00:53;99413.25;;;12.71;100.00
15263;BME280;7733;51.554;13.590;2022-11-04T07:03:18;99414.50;;;12.84;100.00
15263;BME280;7733;51.554;13.590;2022-11-04T07:05:44;99419.88;;;12.81;100.00
15263;BME280;7733;51.554;13.590;2022-11-04T07:08:09;99410.88;;;12.65;100.00
15263;BME280;7733;51.554;13.590;2022-11-04T07:10:35;99388.59;;;12.95;100.00
15263;BME280;7733;51.554;13.590;2022-11-04T07:13:01;99371.75;;;12.56;100.00
15263;BME280;7733;51.554;13.590;2022-11-04T07:15:26;99377.44;;;12.45;100.00
15263;BME280;7733;51.554;13.590;2022-11-04T07:17:52;99369.47;;;12.46;100.00
15263;BME280;7733;51.554;13.590;2022-11-04T07:20:17;99367.69;;;12.92;100.00
15263;BME280;7733;51.554;13.590;2022-11-04T07:22:43;99378.13;;;13.16;100.00
15263;BME280;7733;51.554;13.590;2022-11-04T07:25:09;99374.84;;;13.10;100.00
15263;BME280;7733;51.554;13.590;2022-11-04T07:27:34;99393.94;;;13.16;100.00
15263;BME280;7733;51.554;13.590;2022-11-04T07:30:00;99392.47;;;13.08;100.00
15263;BME280;7733;51.554;13.590;2022-11-04T07:32:26;99397.63;;;13.12;100.00
15263;BME280;7733;51.554;13.590;2022-11-04T07:34:51;99407.19;;;13.36;100.00
15263;BME280;7733;51.554;13.590;2022-11-04T07:37:17;99421.47;;;13.30;100.00
15263;BME280;7733;51.554;13.590;2022-11-04T07:39:43;99428.03;;;13.42;100.00
15263;BME280;7733;51.554;13.590;2022-11-04T07:42:08;99426.03;;;13.47;100.00
15263;BME280;7733;51.554;13.590;2022-11-04T07:44:34;99417.69;;;13.78;100.00
15263;BME280;7733;51.554;13.590;2022-11-04T07:47:00;99413.28;;;13.79;100.00
15263;BME280;7733;51.554;13.590;2022-11-04T07:49:25;99397.53;;;13.97;100.00
15263;BME280;7733;51.554;13.590;2022-11-04T07:51:51;99391.69;;;13.70;100.00
15263;BME280;7733;51.554;13.590;2022-11-04T07:54:17;99394.44;;;13.67;100.00
15263;BME280;7733;51.554;13.590;2022-11-04T07:56:42;99399.44;;;13.53;100.00
15263;BME280;7733;51.554;13.590;2022-11-04T07:59:08;99406.13;;;13.40;100.00
15263;BME280;7733;51.554;13.590;2022-11-04T08:01:34;99404.19;;;13.65;100.00
15263;BME280;7733;51.554;13.590;2022-11-04T08:03:59;99417.47;;;13.42;100.00
15263;BME280;7733;51.554;13.590;2022-11-04T08:06:25;99411.97;;;13.89;100.00
15263;BME280;7733;51.554;13.590;2022-11-04T08:08:51;99416.09;;;14.15;100.00
15263;BME280;7733;51.554;13.590;2022-11-04T08:11:22;99422.09;;;13.98;100.00
15263;BME280;7733;51.554;13.590;2022-11-04T08:13:50;99426.91;;;14.29;100.00
15263;BME280;7733;51.554;13.590;2022-11-04T08:16:21;99436.84;;;14.04;100.00
15263;BME280;7733;51.554;13.590;2022-11-04T08:18:49;99404.50;;;13.78;100.00
15263;BME280;7733;51.554;13.590;2022-11-04T08:21:16;99419.22;;;13.84;100.00
15263;BME280;7733;51.554;13.590;2022-11-04T08:23:42;99417.25;;;13.68;100.00
15263;BME280;7733;51.554;13.590;2022-11-04T08:26:15;99415.19;;;13.75;100.00
15263;BME280;7733;51.554;13.590;2022-11-04T08:28:41;99424.28;;;13.68;100.00
15263;BME280;7733;51.554;13.590;2022-11-04T08:31:15;99426.13;;;13.66;100.00
15263;BME280;7733;51.554;13.590;2022-11-04T08:33:41;99423.03;;;13.77;100.00
15263;BME280;7733;51.554;13.590;2022-11-04T08:36:27;99423.81;;;13.79;100.00
15263;BME280;7733;51.554;13.590;2022-11-04T08:38:54;99425.81;;;13.94;100.00
15263;BME280;7733;51.554;13.590;2022-11-04T08:41:24;99407.16;;;13.98;100.00
15263;BME280;7733;51.554;13.590;2022-11-04T08:43:50;99397.09;;;14.27;100.00
15263;BME280;7733;51.554;13.590;2022-11-04T08:46:16;99416.97;;;14.15;100.00
15263;BME280;7733;51.554;13.590;2022-11-04T08:48:43;99424.00;;;14.15;100.00
15263;BME280;7733;51.554;13.590;2022-11-04T08:51:17;99436.28;;;13.95;100.00
15263;BME280;7733;51.554;13.590;2022-11-04T08:53:43;99442.16;;;14.22;100.00
15263;BME280;7733;51.554;13.590;2022-11-04T08:56:19;99429.03;;;13.80;100.00
15263;BME280;7733;51.554;13.590;2022-11-04T08:58:45;99417.50;;;14.03;100.00
15263;BME280;7733;51.554;13.590;2022-11-04T09:01:11;99408.00;;;13.99;100.00
15263;BME280;7733;51.554;13.590;2022-11-04T09:03:39;99409.72;;;14.00;100.00
15263;BME280;7733;51.554;13.590;2022-11-04T09:06:21;99422.19;;;13.96;100.00
15263;BME280;7733;51.554;13.590;2022-11-04T09:08:47;99432.28;;;14.07;100.00
15263;BME280;7733;51.554;13.590;2022-11-04T09:11:15;99440.03;;;13.90;100.00
15263;BME280;7733;51.554;13.590;2022-11-04T09:13:42;99432.59;;;13.79;100.00
15263;BME280;7733;51.554;13.590;2022-11-04T09:16:11;99433.50;;;13.58;100.00
15263;BME280;7733;51.554;13.590;2022-11-04T09:18:38;99421.31;;;13.76;100.00
15263;BME280;7733;51.554;13.590;2022-11-04T09:21:06;99405.28;;;13.60;100.00
15263;BME280;7733;51.554;13.590;2022-11-04T09:23:33;99413.81;;;13.66;100.00
15263;BME280;7733;51.554;13.590;2022-11-04T09:26:09;99415.63;;;13.44;100.00
15263;BME280;7733;51.554;13.590;2022-11-04T09:28:35;99424.41;;;13.45;100.00
15263;BME280;7733;51.554;13.590;2022-11-04T09:31:06;99428.56;;;13.50;100.00
15263;BME280;7733;51.554;13.590;2022-11-04T09:33:32;99428.63;;;13.49;100.00
15263;BME280;7733;51.554;13.590;2022-11-04T09:35:58;99437.72;;;13.40;100.00
15263;BME280;7733;51.554;13.590;2022-11-04T09:38:24;99442.19;;;13.16;100.00
15263;BME280;7733;51.554;13.590;2022-11-04T09:40:51;99451.16;;;13.34;100.00
15263;BME280;7733;51.554;13.590;2022-11-04T09:46:12;99424.34;;;13.24;100.00
15263;BME280;7733;51.554;13.590;2022-11-04T09:48:47;99438.06;;;13.32;100.00
15263;BME280;7733;51.554;13.590;2022-11-04T09:51:18;99436.72;;;13.44;100.00
15263;BME280;7733;51.554;13.590;2022-11-04T09:53:59;99433.22;;;12.76;100.00
15263;BME280;7733;51.554;13.590;2022-11-04T09:56:34;99429.81;;;12.96;100.00
15263;BME280;7733;51.554;13.590;2022-11-04T09:59:03;99424.13;;;13.07;100.00
15263;BME280;7733;51.554;13.590;2022-11-04T10:04:29;99429.22;;;13.12;100.00
15263;BME280;7733;51.554;13.590;2022-11-04T10:10:40;99426.50;;;12.91;100.00
15263;BME280;7733;51.554;13.590;2022-11-04T10:13:33;99426.69;;;13.08;100.00
15263;BME280;7733;51.554;13.590;2022-11-04T10:22:17;99454.84;;;12.85;100.00
15263;BME280;7733;51.554;13.590;2022-11-04T10:25:15;99451.53;;;13.25;100.00
15263;BME280;7733;51.554;13.590;2022-11-04T10:27:45;99461.59;;;13.14;100.00
15263;BME280;7733;51.554;13.590;2022-11-04T10:30:17;99474.44;;;12.99;100.00
15263;BME280;7733;51.554;13.590;2022-11-04T10:33:08;99472.34;;;12.86;100.00
15263;BME280;7733;51.554;13.590;2022-11-04T10:35:47;99481.38;;;12.55;100.00
15263;BME280;7733;51.554;13.590;2022-11-04T10:38:23;99484.00;;;12.55;100.00
15263;BME280;7733;51.554;13.590;2022-11-04T10:40:54;99499.16;;;12.72;100.00
15263;BME280;7733;51.554;13.590;2022-11-04T10:43:35;99506.94;;;12.75;100.00
15263;BME280;7733;51.554;13.590;2022-11-04T10:46:35;99517.22;;;12.83;100.00
15263;BME280;7733;51.554;13.590;2022-11-04T10:52:05;99517.47;;;12.98;100.00
15263;BME280;7733;51.554;13.590;2022-11-04T10:54:41;99527.31;;;12.93;100.00
15263;BME280;7733;51.554;13.590;2022-11-04T10:57:09;99534.66;;;12.85;100.00
15263;BME280;7733;51.554;13.590;2022-11-04T11:00:00;99538.47;;;12.76;100.00
15263;BME280;7733;51.554;13.590;2022-11-04T11:05:23;99533.75;;;12.86;100.00
15263;BME280;7733;51.554;13.590;2022-11-04T11:07:55;99528.97;;;12.72;100.00
15263;BME280;7733;51.554;13.590;2022-11-04T11:10:31;99529.78;;;12.74;100.00
15263;BME280;7733;51.554;13.590;2022-11-04T11:13:05;99533.34;;;12.24;100.00
15263;BME280;7733;51.554;13.590;2022-11-04T11:15:36;99535.59;;;12.59;100.00
15263;BME280;7733;51.554;13.590;2022-11-04T11:18:14;99532.44;;;12.49;100.00
15263;BME280;7733;51.554;13.590;2022-11-04T11:20:47;99522.84;;;12.72;100.00
15263;BME280;7733;51.554;13.590;2022-11-04T11:23:42;99516.81;;;12.45;100.00
15263;BME280;7733;51.554;13.590;2022-11-04T11:26:12;99530.97;;;12.16;100.00
15263;BME280;7733;51.554;13.590;2022-11-04T11:28:40;99528.72;;;12.30;100.00
15263;BME280;7733;51.554;13.590;2022-11-04T11:31:13;99520.69;;;12.35;100.00
15263;BME280;7733;51.554;13.590;2022-11-04T11:34:02;99529.03;;;12.21;100.00
15263;BME280;7733;51.554;13.590;2022-11-04T11:36:35;99532.38;;;12.26;100.00
15263;BME280;7733;51.554;13.590;2022-11-04T11:39:13;99512.72;;;12.11;100.00
15263;BME280;7733;51.554;13.590;2022-11-04T11:44:37;99519.50;;;12.43;100.00
15263;BME280;7733;51.554;13.590;2022-11-04T11:47:33;99519.72;;;12.37;100.00
15263;BME280;7733;51.554;13.590;2022-11-04T11:50:16;99514.16;;;12.22;100.00
15263;BME280;7733;51.554;13.590;2022-11-04T11:52:52;99519.19;;;12.03;100.00
15263;BME280;7733;51.554;13.590;2022-11-04T11:55:35;99516.09;;;11.90;100.00
15263;BME280;7733;51.554;13.590;2022-11-04T11:58:34;99525.28;;;12.03;100.00
15263;BME280;7733;51.554;13.590;2022-11-04T12:01:21;99511.81;;;12.12;100.00
15263;BME280;7733;51.554;13.590;2022-11-04T12:03:50;99515.31;;;12.13;100.00
15263;BME280;7733;51.554;13.590;2022-11-04T12:07:03;99525.34;;;12.27;100.00
15263;BME280;7733;51.554;13.590;2022-11-04T12:09:46;99517.94;;;12.38;100.00
15263;BME280;7733;51.554;13.590;2022-11-04T12:15:58;99512.97;;;12.30;100.00
15263;BME280;7733;51.554;13.590;2022-11-04T12:19:00;99513.34;;;11.93;100.00
15263;BME280;7733;51.554;13.590;2022-11-04T12:21:34;99523.41;;;12.07;100.00
15263;BME280;7733;51.554;13.590;2022-11-04T12:25:23;99526.91;;;12.32;100.00
15263;BME280;7733;51.554;13.590;2022-11-04T12:30:18;99529.19;;;12.43;100.00
15263;BME280;7733;51.554;13.590;2022-11-04T12:32:58;99523.56;;;12.52;100.00
15263;BME280;7733;51.554;13.590;2022-11-04T12:35:59;99523.06;;;12.42;100.00
15263;BME280;7733;51.554;13.590;2022-11-04T12:39:07;99527.69;;;12.59;100.00
15263;BME280;7733;51.554;13.590;2022-11-04T12:41:58;99532.38;;;12.51;100.00
15263;BME280;7733;51.554;13.590;2022-11-04T12:44:41;99526.69;;;12.63;100.00
15263;BME280;7733;51.554;13.590;2022-11-04T12:58:46;99531.13;;;12.36;100.00
15263;BME280;7733;51.554;13.590;2022-11-04T13:01:34;99527.06;;;12.28;100.00
15263;BME280;7733;51.554;13.590;2022-11-04T13:04:34;99515.81;;;12.24;100.00
15263;BME280;7733;51.554;13.590;2022-11-04T13:07:09;99512.44;;;12.45;100.00
15263;BME280;7733;51.554;13.590;2022-11-04T13:10:10;99497.06;;;12.33;100.00
15263;BME280;7733;51.554;13.590;2022-11-04T13:12:44;99507.28;;;12.42;100.00
15263;BME280;7733;51.554;13.590;2022-11-04T13:15:22;99508.88;;;12.46;100.00
15263;BME280;7733;51.554;13.590;2022-11-04T13:17:55;99506.13;;;12.49;100.00
15263;BME280;7733;51.554;13.590;2022-11-04T13:20:39;99510.09;;;12.36;100.00
15263;BME280;7733;51.554;13.590;2022-11-04T13:23:28;99507.16;;;12.21;100.00
15263;BME280;7733;51.554;13.590;2022-11-04T13:25:57;99517.66;;;12.21;100.00
15263;BME280;7733;51.554;13.590;2022-11-04T13:28:25;99525.25;;;12.30;100.00
15263;BME280;7733;51.554;13.590;2022-11-04T13:31:01;99523.47;;;12.05;100.00
15263;BME280;7733;51.554;13.590;2022-11-04T13:36:45;99523.88;;;12.18;100.00
15263;BME280;7733;51.554;13.590;2022-11-04T13:39:30;99520.44;;;11.91;100.00
15263;BME280;7733;51.554;13.590;2022-11-04T13:42:08;99520.91;;;12.04;100.00
15263;BME280;7733;51.554;13.590;2022-11-04T13:44:44;99520.22;;;11.97;100.00
15263;BME280;7733;51.554;13.590;2022-11-04T13:47:23;99517.88;;;11.90;100.00
15263;BME280;7733;51.554;13.590;2022-11-04T13:49:54;99523.41;;;11.80;100.00
15263;BME280;7733;51.554;13.590;2022-11-04T13:52:26;99531.22;;;11.83;100.00
15263;BME280;7733;51.554;13.590;2022-11-04T13:54:57;99533.84;;;11.83;100.00
15263;BME280;7733;51.554;13.590;2022-11-04T13:57:28;99532.47;;;11.70;100.00
15263;BME280;7733;51.554;13.590;2022-11-04T14:02:48;99534.13;;;11.73;100.00
15263;BME280;7733;51.554;13.590;2022-11-04T14:18:53;99541.88;;;11.77;100.00
15263;BME280;7733;51.554;13.590;2022-11-04T14:21:23;99550.00;;;11.98;100.00
15263;BME280;7733;51.554;13.590;2022-11-04T14:23:56;99557.16;;;12.19;100.00
15263;BME280;7733;51.554;13.590;2022-11-04T14:26:28;99551.03;;;12.18;100.00
15263;BME280;7733;51.554;13.590;2022-11-04T14:29:25;99552.75;;;12.19;100.00
15263;BME280;7733;51.554;13.590;2022-11-04T14:31:54;99545.78;;;12.18;100.00
15263;BME280;7733;51.554;13.590;2022-11-04T14:34:28;99554.34;;;12.25;100.00
15263;BME280;7733;51.554;13.590;2022-11-04T14:36:57;99559.09;;;12.14;100.00
15263;BME280;7733;51.554;13.590;2022-11-04T14:39:28;99557.38;;;12.13;100.00
15263;BME280;7733;51.554;13.590;2022-11-04T14:42:02;99563.03;;;12.27;100.00